createdAt,value
2022-12-31T00:03:09.080Z,94.26
2022-12-31T00:07:11.855Z,94.18
2022-12-31T00:11:16.629Z,93.99
2022-12-31T00:15:19.602Z,94.17
2022-12-31T00:19:22.256Z,94.23
2022-12-31T00:23:24.928Z,94.06
2022-12-31T00:27:31.320Z,94.02
2022-12-31T00:31:35.976Z,93.98
2022-12-31T00:35:38.659Z,94.40
2022-12-31T00:39:41.360Z,93.98
2022-12-31T00:43:45.840Z,93.81
2022-12-31T00:47:48.492Z,94.09
2022-12-31T00:51:51.163Z,94.42
2022-12-31T00:56:00.193Z,94.18
2022-12-31T01:00:07.236Z,94.32
2022-12-31T01:04:12.660Z,93.89
2022-12-31T01:08:15.339Z,93.83
2022-12-31T01:12:18.059Z,93.73
2022-12-31T01:16:23.924Z,93.83
2022-12-31T01:20:26.605Z,94.24
2022-12-31T01:24:29.315Z,94.18
2022-12-31T01:28:32.426Z,93.74
2022-12-31T01:32:36.476Z,93.92
2022-12-31T01:36:39.739Z,93.58
2022-12-31T01:40:42.903Z,93.99
2022-12-31T01:44:52.029Z,94.11
2022-12-31T01:49:00.225Z,94.18
2022-12-31T01:53:06.035Z,94.17
2022-12-31T01:57:10.482Z,94.21
2022-12-31T02:01:18.830Z,94.38
2022-12-31T02:05:27.204Z,94.39
2022-12-31T02:09:31.388Z,93.86
2022-12-31T02:13:34.100Z,93.71
2022-12-31T02:17:47.571Z,93.99
2022-12-31T02:22:01.507Z,94.39
2022-12-31T02:26:29.682Z,94.39
2022-12-31T02:30:34.491Z,94.57
2022-12-31T02:34:42.534Z,93.85
2022-12-31T02:38:48.703Z,92.98
2022-12-31T02:42:55.306Z,92.77
2022-12-31T02:47:14.322Z,92.79
2022-12-31T02:51:32.304Z,92.56
2022-12-31T02:55:43.110Z,92.17
2022-12-31T03:00:11.857Z,92.19
2022-12-31T03:04:36.189Z,92.15
2022-12-31T03:08:57.039Z,92.07
2022-12-31T03:12:59.729Z,92.01
2022-12-31T03:17:02.494Z,92.19
2022-12-31T03:21:30.501Z,92.16
2022-12-31T03:25:36.011Z,91.74
2022-12-31T03:29:38.622Z,91.48
2022-12-31T03:33:42.758Z,91.49
2022-12-31T03:37:47.496Z,91.55
2022-12-31T03:41:50.178Z,91.53
2022-12-31T03:45:54.551Z,91.33
2022-12-31T03:49:57.187Z,91.28
2022-12-31T03:54:01.170Z,91.27
2022-12-31T03:58:03.904Z,91.29
2022-12-31T04:02:06.739Z,91.16
2022-12-31T04:06:09.428Z,90.77
2022-12-31T04:10:14.985Z,90.44
2022-12-31T04:14:17.841Z,89.98
2022-12-31T04:18:20.434Z,89.68
2022-12-31T04:22:23.119Z,89.64
2022-12-31T04:26:27.135Z,89.65
2022-12-31T04:30:29.812Z,89.51
2022-12-31T04:34:32.644Z,89.02
2022-12-31T04:38:35.648Z,87.75
2022-12-31T04:42:39.712Z,86.61
2022-12-31T04:46:42.569Z,85.60
2022-12-31T04:50:47.564Z,85.40
2022-12-31T04:54:50.165Z,85.75
2022-12-31T04:58:54.469Z,85.93
2022-12-31T05:02:57.135Z,86.17
2022-12-31T05:06:59.811Z,86.00
2022-12-31T05:11:02.421Z,86.18
2022-12-31T05:15:08.049Z,86.32
2022-12-31T05:19:10.899Z,86.59
2022-12-31T05:23:14.182Z,85.81
2022-12-31T05:27:16.869Z,85.45
2022-12-31T05:31:20.881Z,85.31
2022-12-31T05:35:23.530Z,84.99
2022-12-31T05:39:26.273Z,85.09
2022-12-31T05:43:29.521Z,85.43
2022-12-31T05:47:33.669Z,84.64
2022-12-31T05:51:36.326Z,84.54
2022-12-31T05:55:38.949Z,84.58
2022-12-31T05:59:41.611Z,84.19
2022-12-31T06:03:45.676Z,84.29
2022-12-31T06:07:48.307Z,84.41
2022-12-31T06:11:51.239Z,84.70
2022-12-31T06:15:53.933Z,84.88
2022-12-31T06:19:57.973Z,84.71
2022-12-31T06:24:00.833Z,84.38
2022-12-31T06:28:03.542Z,84.36
2022-12-31T06:32:06.727Z,84.41
2022-12-31T06:36:14.450Z,84.35
2022-12-31T06:40:17.287Z,84.46
2022-12-31T06:44:22.386Z,84.57
2022-12-31T06:48:25.103Z,84.68
2022-12-31T06:52:29.112Z,84.80
2022-12-31T06:56:34.836Z,84.75
2022-12-31T07:00:38.504Z,85.74
2022-12-31T07:05:08.630Z,86.87
2022-12-31T07:09:22.829Z,87.44
2022-12-31T07:13:59.191Z,88.59
2022-12-31T07:18:11.360Z,88.49
2022-12-31T07:22:16.775Z,87.87
2022-12-31T07:26:36.514Z,87.27
2022-12-31T07:30:47.904Z,90.71
2022-12-31T07:35:03.572Z,89.02
2022-12-31T07:39:10.464Z,90.10
2022-12-31T07:43:19.221Z,88.11
2022-12-31T07:47:24.044Z,85.39
2022-12-31T07:51:27.461Z,87.21
2022-12-31T07:55:30.163Z,88.37
2022-12-31T07:59:48.387Z,88.95
2022-12-31T08:03:59.750Z,88.81
2022-12-31T08:08:12.437Z,88.96
2022-12-31T08:12:15.670Z,89.59
2022-12-31T08:16:21.749Z,89.94
2022-12-31T08:20:24.683Z,89.24
2022-12-31T08:24:35.284Z,87.77
2022-12-31T08:28:54.009Z,85.58
2022-12-31T08:33:12.675Z,83.48
2022-12-31T08:37:23.969Z,81.50
2022-12-31T08:41:31.125Z,79.57
2022-12-31T08:45:38.969Z,79.16
2022-12-31T08:49:43.694Z,76.86
2022-12-31T08:53:48.319Z,77.40
2022-12-31T08:58:05.632Z,77.51
2022-12-31T09:02:46.152Z,77.17
2022-12-31T09:06:59.315Z,76.69
2022-12-31T09:11:09.244Z,76.19
2022-12-31T09:15:17.912Z,76.76
2022-12-31T09:19:20.535Z,76.18
2022-12-31T09:23:25.177Z,74.82
2022-12-31T09:27:32.433Z,75.76
2022-12-31T09:31:41.315Z,74.85
2022-12-31T09:35:52.450Z,74.12
2022-12-31T09:40:01.335Z,73.45
2022-12-31T09:44:43.954Z,74.02
2022-12-31T09:49:25.500Z,72.58
2022-12-31T09:53:42.116Z,72.59
2022-12-31T09:57:59.379Z,72.39
2022-12-31T10:02:16.401Z,73.10
2022-12-31T10:06:25.769Z,73.00
2022-12-31T10:10:35.392Z,72.82
2022-12-31T10:14:53.892Z,72.76
2022-12-31T10:19:14.405Z,73.12
2022-12-31T10:23:33.386Z,71.76
2022-12-31T10:27:50.650Z,71.11
2022-12-31T10:32:09.116Z,70.50
2022-12-31T10:36:20.013Z,71.32
2022-12-31T10:40:31.229Z,71.42
2022-12-31T10:45:04.702Z,70.32
2022-12-31T10:49:42.897Z,69.38
2022-12-31T10:54:21.893Z,68.78
2022-12-31T10:58:52.875Z,68.20
2022-12-31T11:03:30.536Z,67.97
2022-12-31T11:08:05.122Z,68.09
2022-12-31T11:12:27.941Z,67.99
2022-12-31T11:16:49.755Z,67.78
2022-12-31T11:21:13.139Z,68.22
2022-12-31T11:25:40.176Z,68.41
2022-12-31T11:30:06.332Z,68.21
2022-12-31T11:34:24.244Z,68.21
2022-12-31T11:38:30.250Z,67.57
2022-12-31T11:42:41.422Z,66.84
2022-12-31T11:46:55.090Z,67.43
2022-12-31T11:51:16.294Z,67.37
2022-12-31T11:55:35.981Z,67.34
2022-12-31T11:59:40.057Z,65.47
2022-12-31T12:03:43.788Z,65.48
2022-12-31T12:07:47.309Z,63.73
2022-12-31T12:12:00.034Z,63.65
2022-12-31T12:16:08.332Z,62.17
2022-12-31T12:20:18.267Z,60.87
2022-12-31T12:24:23.485Z,60.61
2022-12-31T12:28:28.198Z,61.82
2022-12-31T12:32:32.185Z,61.84
2022-12-31T12:36:34.915Z,62.04
2022-12-31T12:40:37.455Z,63.76
2022-12-31T12:44:42.310Z,61.70
2022-12-31T12:48:49.406Z,60.68
2022-12-31T12:53:09.318Z,64.01
2022-12-31T12:57:21.999Z,65.43
2022-12-31T13:01:34.951Z,66.31
2022-12-31T13:05:49.060Z,65.38
2022-12-31T13:10:16.212Z,61.82
2022-12-31T13:14:30.868Z,59.19
2022-12-31T13:18:48.207Z,58.79
2022-12-31T13:23:00.008Z,58.71
2022-12-31T13:27:09.789Z,58.23
2022-12-31T13:31:16.459Z,59.01
2022-12-31T13:35:26.283Z,59.63
2022-12-31T13:39:34.371Z,59.69
2022-12-31T13:43:45.768Z,58.70
2022-12-31T13:47:56.636Z,59.30
2022-12-31T13:52:04.865Z,59.43
2022-12-31T13:56:14.045Z,59.73
2022-12-31T14:00:24.155Z,60.63
2022-12-31T14:04:34.273Z,61.27
2022-12-31T14:08:36.909Z,62.18
2022-12-31T14:12:48.197Z,62.46
2022-12-31T14:16:56.550Z,63.05
2022-12-31T14:21:07.714Z,65.10
2022-12-31T14:25:21.519Z,66.69
2022-12-31T14:29:34.166Z,68.85
2022-12-31T14:33:49.853Z,71.04
2022-12-31T14:38:00.135Z,72.84
2022-12-31T14:42:18.382Z,75.07
2022-12-31T14:46:33.746Z,76.54
2022-12-31T14:50:37.775Z,77.15
2022-12-31T14:54:40.426Z,77.82
2022-12-31T14:58:43.663Z,78.12
2022-12-31T15:02:52.189Z,77.68
2022-12-31T15:06:59.866Z,77.65
2022-12-31T15:11:20.218Z,77.84
2022-12-31T15:16:01.830Z,78.99
2022-12-31T15:20:23.021Z,79.78
2022-12-31T15:24:28.010Z,80.02
2022-12-31T15:28:34.158Z,80.54
2022-12-31T15:32:40.433Z,81.10
2022-12-31T15:36:54.500Z,81.49
2022-12-31T15:40:57.404Z,82.56
2022-12-31T15:45:03.690Z,86.27
2022-12-31T15:49:15.679Z,84.04
2022-12-31T15:53:27.325Z,84.64
2022-12-31T15:57:33.868Z,85.25
2022-12-31T16:01:37.972Z,83.10
2022-12-31T16:05:40.657Z,81.87
2022-12-31T16:09:50.590Z,81.68
2022-12-31T16:13:55.828Z,82.36
2022-12-31T16:18:01.122Z,82.73
2022-12-31T16:22:10.617Z,82.94
2022-12-31T16:26:14.680Z,83.43
2022-12-31T16:30:22.236Z,83.56
2022-12-31T16:34:26.636Z,83.86
2022-12-31T16:38:34.229Z,83.96
2022-12-31T16:42:44.309Z,84.38
2022-12-31T16:46:48.645Z,85.06
2022-12-31T16:50:54.776Z,84.59
2022-12-31T16:54:58.196Z,84.64
2022-12-31T16:59:05.748Z,84.62
2022-12-31T17:03:17.893Z,84.16
2022-12-31T17:07:38.257Z,84.78
2022-12-31T17:11:45.423Z,85.22
2022-12-31T17:15:49.587Z,85.16
2022-12-31T17:19:58.404Z,85.03
2022-12-31T17:24:07.554Z,85.56
2022-12-31T17:28:23.108Z,85.82
2022-12-31T17:32:32.157Z,86.86
2022-12-31T17:36:34.777Z,87.16
2022-12-31T17:40:54.666Z,86.81
2022-12-31T17:45:02.181Z,86.87
2022-12-31T17:49:06.361Z,86.45
2022-12-31T17:53:12.192Z,86.43
2022-12-31T17:57:24.918Z,86.38
2022-12-31T18:01:27.406Z,86.63
2022-12-31T18:05:31.450Z,86.90
2022-12-31T18:09:34.055Z,86.50
2022-12-31T18:13:36.752Z,87.76
2022-12-31T18:17:39.656Z,87.74
2022-12-31T18:21:44.615Z,87.60
2022-12-31T18:25:47.339Z,87.73
2022-12-31T18:29:49.926Z,87.83
2022-12-31T18:33:54.156Z,89.32
2022-12-31T18:37:58.979Z,90.42
2022-12-31T18:42:03.345Z,89.51
2022-12-31T18:46:06.577Z,87.70
2022-12-31T18:50:11.442Z,87.27
2022-12-31T18:54:15.823Z,86.89
2022-12-31T18:58:19.152Z,86.57
2022-12-31T19:02:21.987Z,86.83
2022-12-31T19:06:25.033Z,87.21
2022-12-31T19:10:29.627Z,87.13
2022-12-31T19:14:32.374Z,87.65
2022-12-31T19:18:35.334Z,87.62
2022-12-31T19:22:37.901Z,87.95
2022-12-31T19:26:43.521Z,87.98
2022-12-31T19:30:46.526Z,87.69
2022-12-31T19:34:49.296Z,87.83
2022-12-31T19:38:51.967Z,88.01
2022-12-31T19:42:56.871Z,88.14
2022-12-31T19:46:59.487Z,88.19
2022-12-31T19:51:02.140Z,88.46
2022-12-31T19:55:04.939Z,88.71
2022-12-31T19:59:11.251Z,89.21
2022-12-31T20:03:14.998Z,89.64
2022-12-31T20:07:22.125Z,89.66
2022-12-31T20:11:28.449Z,89.88
2022-12-31T20:15:32.497Z,89.44
2022-12-31T20:19:35.231Z,89.34
2022-12-31T20:23:37.927Z,89.24
2022-12-31T20:27:40.635Z,89.80
2022-12-31T20:31:44.573Z,90.06
2022-12-31T20:35:47.473Z,89.94
2022-12-31T20:39:51.057Z,90.16
2022-12-31T20:43:53.691Z,90.23
2022-12-31T20:47:58.065Z,90.02
2022-12-31T20:52:00.713Z,90.11
2022-12-31T20:56:05.055Z,89.77
2022-12-31T21:00:08.812Z,90.10
2022-12-31T21:04:12.896Z,89.80
2022-12-31T21:08:15.624Z,89.75
2022-12-31T21:12:35.816Z,89.90
2022-12-31T21:16:38.617Z,89.87
2022-12-31T21:20:46.951Z,89.73
2022-12-31T21:24:49.527Z,89.58
2022-12-31T21:28:53.440Z,89.71
2022-12-31T21:32:56.059Z,89.57
2022-12-31T21:37:00.029Z,89.77
2022-12-31T21:41:03.268Z,89.63
2022-12-31T21:45:07.438Z,90.06
2022-12-31T21:49:10.164Z,90.21
2022-12-31T21:53:17.599Z,90.31
2022-12-31T21:57:22.918Z,90.32
2022-12-31T22:01:42.974Z,90.36
2022-12-31T22:05:51.131Z,89.90
2022-12-31T22:09:55.323Z,90.50
2022-12-31T22:13:58.334Z,90.79
2022-12-31T22:18:00.931Z,90.92
2022-12-31T22:22:03.510Z,90.70
2022-12-31T22:26:08.948Z,90.74
2022-12-31T22:30:12.187Z,90.52
2022-12-31T22:34:14.769Z,90.59
2022-12-31T22:38:17.370Z,90.45
2022-12-31T22:42:21.294Z,90.58
2022-12-31T22:46:26.156Z,91.17
2022-12-31T22:50:28.841Z,91.18
2022-12-31T22:54:31.520Z,91.37
2022-12-31T22:58:36.082Z,91.32
2022-12-31T23:02:41.972Z,91.20
2022-12-31T23:06:45.066Z,90.76
2022-12-31T23:11:00.632Z,90.97
2022-12-31T23:15:22.740Z,90.94
2022-12-31T23:19:43.133Z,91.13
2022-12-31T23:23:45.730Z,91.25
2022-12-31T23:27:48.406Z,90.97
2022-12-31T23:31:52.687Z,90.52
2022-12-31T23:36:03.988Z,90.41
2022-12-31T23:40:08.084Z,90.29
2022-12-31T23:44:12.854Z,90.59
2022-12-31T23:48:16.834Z,90.38
2022-12-31T23:52:20.474Z,90.80
2022-12-31T23:56:23.994Z,90.87
